Selawik, AK

9:54 AM AKST on March 04, 2015 (GMT -0900)
Selawik | Change Station
CLOSE
Current Station
Airport
Location: Selawik,
Elevation: 26 ft
Nearby Weather Stations

Elev 26 ft 66.60 °N, 159.99 °W | Updated 18 minutes ago

Overcast
Overcast
3 °F
Feels Like -4 °F
N
4
Wind Variable Wind from West

Today
High -- | Low -- °F
--% Chance of Precip.
Yesterday
High -- | Low -- °F
Precip. -- in
8:42 AM 7:02 PM
Waxing Gibbous, 99% visible
Pressure 29.94 in
Visibility 3.0 miles
Clouds Overcast 1000 ft
Windchill -4 °F
Dew Point 1 °F
Humidity 92%
Rainfall 0.00 in
Snow Depth Not available.
UV 0 out of 12
Pollen Not available.
Air Quality Not available.
Flu Activity Not available.
METAR PASK 041836Z AUTO 26003KT 3SM OVC010 M16/M17 A2994 RMK AO1

More Conditions Fewer Conditions

Pressure 29.94 in
Visibility 3.0 miles
Clouds Overcast 1000 ft
Windchill -4 °F
Dew Point 1 °F
Humidity 92%
Rainfall 0.00 in
Snow Depth Not available.
UV 0 out of 12
Pollen Not available.
Air Quality Not available.
Flu Activity Not available.
METAR PASK 041836Z AUTO 26003KT 3SM OVC010 M16/M17 A2994 RMK AO1

More Conditions Fewer Conditions

10-Day Weather Forecast

Almanac

Astronomy

Mar. 04, 2015 Rise Set
Actual Time
Civil Twilight
Nautical Twilight
Astronomical Twilight
Moon
Length of Visible Light
Length of Day
Tomorrow will be .
, % of the Moon is Illuminated

Today's Extremes

State Highs State Lows

Community

WunderPhotos

Upload Photos

1,802,536 photos uploaded!

WunderBlogs® & News

Nearby

Air Quality

  Air Quality AQ Index Pollutant
Not available.

Snow Depth

Station Depth Elevation

Earthquake Activity

City Distance Mag. Time & Date
Minimum magnitude displayed is 2.5.

Coastal Water Temperatures

Place Temperature

Nearby Weather Stations